sensor_id;sensor_type;location;lat;lon;timestamp;temperature;humidity
12815;DHT22;6472;52.328;13.070;2023-12-28T00:00:25;3.60;99.90
12815;DHT22;6472;52.328;13.070;2023-12-28T00:02:53;3.50;99.90
12815;DHT22;6472;52.328;13.070;2023-12-28T00:05:21;3.50;99.90
12815;DHT22;6472;52.328;13.070;2023-12-28T00:07:49;3.70;99.90
12815;DHT22;6472;52.328;13.070;2023-12-28T00:10:24;3.60;99.90
12815;DHT22;6472;52.328;13.070;2023-12-28T00:12:52;3.50;99.90
12815;DHT22;6472;52.328;13.070;2023-12-28T00:15:21;3.50;99.90
12815;DHT22;6472;52.328;13.070;2023-12-28T00:17:50;3.50;99.90
12815;DHT22;6472;52.328;13.070;2023-12-28T00:20:18;3.40;99.90
12815;DHT22;6472;52.328;13.070;2023-12-28T00:22:46;3.40;99.90
12815;DHT22;6472;52.328;13.070;2023-12-28T00:25:14;3.30;99.90
12815;DHT22;6472;52.328;13.070;2023-12-28T00:27:42;3.20;99.90
12815;DHT22;6472;52.328;13.070;2023-12-28T00:30:12;3.20;99.90
12815;DHT22;6472;52.328;13.070;2023-12-28T00:32:41;3.10;99.90
12815;DHT22;6472;52.328;13.070;2023-12-28T00:35:11;3.00;99.90
12815;DHT22;6472;52.328;13.070;2023-12-28T00:37:39;2.90;99.90
12815;DHT22;6472;52.328;13.070;2023-12-28T00:40:08;2.90;99.90
12815;DHT22;6472;52.328;13.070;2023-12-28T00:42:36;2.80;99.90
12815;DHT22;6472;52.328;13.070;2023-12-28T00:45:07;2.80;99.90
12815;DHT22;6472;52.328;13.070;2023-12-28T00:47:35;2.70;99.90
12815;DHT22;6472;52.328;13.070;2023-12-28T00:50:03;2.70;99.90
12815;DHT22;6472;52.328;13.070;2023-12-28T00:52:32;2.80;99.90
12815;DHT22;6472;52.328;13.070;2023-12-28T00:55:00;2.80;99.90
12815;DHT22;6472;52.328;13.070;2023-12-28T00:57:28;2.60;99.90
12815;DHT22;6472;52.328;13.070;2023-12-28T00:59:56;2.60;99.90
12815;DHT22;6472;52.328;13.070;2023-12-28T01:02:24;2.60;99.90
12815;DHT22;6472;52.328;13.070;2023-12-28T01:04:52;2.50;99.90
12815;DHT22;6472;52.328;13.070;2023-12-28T01:07:20;2.50;99.90
12815;DHT22;6472;52.328;13.070;2023-12-28T01:09:49;2.50;99.90
12815;DHT22;6472;52.328;13.070;2023-12-28T01:12:17;2.30;99.90
12815;DHT22;6472;52.328;13.070;2023-12-28T01:14:45;2.20;99.90
12815;DHT22;6472;52.328;13.070;2023-12-28T01:17:15;2.30;99.90
12815;DHT22;6472;52.328;13.070;2023-12-28T01:19:43;2.20;99.90
12815;DHT22;6472;52.328;13.070;2023-12-28T01:22:11;2.10;99.90
12815;DHT22;6472;52.328;13.070;2023-12-28T01:24:39;2.00;99.90
12815;DHT22;6472;52.328;13.070;2023-12-28T01:27:08;2.00;99.90
12815;DHT22;6472;52.328;13.070;2023-12-28T01:29:36;2.00;99.90
12815;DHT22;6472;52.328;13.070;2023-12-28T01:32:05;2.20;99.90
12815;DHT22;6472;52.328;13.070;2023-12-28T01:34:33;2.20;99.90
12815;DHT22;6472;52.328;13.070;2023-12-28T01:37:01;2.20;99.90
12815;DHT22;6472;52.328;13.070;2023-12-28T01:39:29;2.20;99.90
12815;DHT22;6472;52.328;13.070;2023-12-28T01:41:57;2.30;99.90
12815;DHT22;6472;52.328;13.070;2023-12-28T01:44:26;2.30;99.90
12815;DHT22;6472;52.328;13.070;2023-12-28T01:46:54;2.20;99.90
12815;DHT22;6472;52.328;13.070;2023-12-28T01:49:22;2.30;99.90
12815;DHT22;6472;52.328;13.070;2023-12-28T01:51:51;2.30;99.90
12815;DHT22;6472;52.328;13.070;2023-12-28T01:54:19;2.30;99.90
12815;DHT22;6472;52.328;13.070;2023-12-28T01:56:47;2.40;99.90
12815;DHT22;6472;52.328;13.070;2023-12-28T01:59:16;2.70;99.90
12815;DHT22;6472;52.328;13.070;2023-12-28T02:01:46;2.70;99.90
12815;DHT22;6472;52.328;13.070;2023-12-28T02:04:15;2.90;99.90
12815;DHT22;6472;52.328;13.070;2023-12-28T02:06:43;3.10;99.90
12815;DHT22;6472;52.328;13.070;2023-12-28T02:09:12;3.20;99.90
12815;DHT22;6472;52.328;13.070;2023-12-28T02:11:40;3.40;99.90
12815;DHT22;6472;52.328;13.070;2023-12-28T02:14:08;3.50;99.90
12815;DHT22;6472;52.328;13.070;2023-12-28T02:16:39;3.80;99.90
12815;DHT22;6472;52.328;13.070;2023-12-28T02:19:18;3.80;99.90
12815;DHT22;6472;52.328;13.070;2023-12-28T02:21:51;4.10;99.90
12815;DHT22;6472;52.328;13.070;2023-12-28T02:24:19;4.30;99.90
12815;DHT22;6472;52.328;13.070;2023-12-28T02:26:49;4.40;99.90
12815;DHT22;6472;52.328;13.070;2023-12-28T02:29:18;4.50;99.90
12815;DHT22;6472;52.328;13.070;2023-12-28T02:31:51;4.50;99.90
12815;DHT22;6472;52.328;13.070;2023-12-28T02:34:26;4.50;99.90
12815;DHT22;6472;52.328;13.070;2023-12-28T02:36:56;4.40;99.90
12815;DHT22;6472;52.328;13.070;2023-12-28T02:39:26;4.50;99.90
12815;DHT22;6472;52.328;13.070;2023-12-28T02:41:56;4.60;99.90
12815;DHT22;6472;52.328;13.070;2023-12-28T02:44:24;4.60;99.90
12815;DHT22;6472;52.328;13.070;2023-12-28T02:46:52;4.60;99.90
12815;DHT22;6472;52.328;13.070;2023-12-28T02:49:20;4.70;99.90
12815;DHT22;6472;52.328;13.070;2023-12-28T02:51:48;5.00;99.90
12815;DHT22;6472;52.328;13.070;2023-12-28T02:54:16;5.20;99.90
12815;DHT22;6472;52.328;13.070;2023-12-28T02:56:44;5.30;99.90
12815;DHT22;6472;52.328;13.070;2023-12-28T02:59:13;5.30;99.90
12815;DHT22;6472;52.328;13.070;2023-12-28T03:01:41;5.30;99.90
12815;DHT22;6472;52.328;13.070;2023-12-28T03:04:09;5.20;99.90
12815;DHT22;6472;52.328;13.070;2023-12-28T03:06:37;5.30;99.90
12815;DHT22;6472;52.328;13.070;2023-12-28T03:09:06;5.50;99.90
12815;DHT22;6472;52.328;13.070;2023-12-28T03:11:34;5.90;99.90
12815;DHT22;6472;52.328;13.070;2023-12-28T03:14:02;6.10;99.90
12815;DHT22;6472;52.328;13.070;2023-12-28T03:16:31;6.40;99.90
12815;DHT22;6472;52.328;13.070;2023-12-28T03:19:01;6.60;99.90
12815;DHT22;6472;52.328;13.070;2023-12-28T03:21:29;6.90;99.90
12815;DHT22;6472;52.328;13.070;2023-12-28T03:23:57;7.00;99.90
12815;DHT22;6472;52.328;13.070;2023-12-28T03:26:25;7.60;99.90
12815;DHT22;6472;52.328;13.070;2023-12-28T03:28:53;7.30;99.90
12815;DHT22;6472;52.328;13.070;2023-12-28T03:31:21;7.30;99.90
12815;DHT22;6472;52.328;13.070;2023-12-28T03:33:50;7.40;99.90
12815;DHT22;6472;52.328;13.070;2023-12-28T03:36:18;7.40;99.90
12815;DHT22;6472;52.328;13.070;2023-12-28T03:38:47;7.50;99.90
12815;DHT22;6472;52.328;13.070;2023-12-28T03:41:17;7.50;99.90
12815;DHT22;6472;52.328;13.070;2023-12-28T03:43:46;7.80;99.90
12815;DHT22;6472;52.328;13.070;2023-12-28T03:46:14;7.40;99.90
12815;DHT22;6472;52.328;13.070;2023-12-28T03:48:42;7.50;99.90
12815;DHT22;6472;52.328;13.070;2023-12-28T03:51:15;7.50;99.90
12815;DHT22;6472;52.328;13.070;2023-12-28T03:53:43;7.40;99.90
12815;DHT22;6472;52.328;13.070;2023-12-28T03:56:19;7.40;99.90
12815;DHT22;6472;52.328;13.070;2023-12-28T03:58:47;7.40;99.90
12815;DHT22;6472;52.328;13.070;2023-12-28T04:01:16;7.40;99.90
12815;DHT22;6472;52.328;13.070;2023-12-28T04:03:44;7.40;99.90
12815;DHT22;6472;52.328;13.070;2023-12-28T04:06:14;7.40;99.90
12815;DHT22;6472;52.328;13.070;2023-12-28T04:08:43;7.50;99.90
12815;DHT22;6472;52.328;13.070;2023-12-28T04:11:11;7.50;99.90
12815;DHT22;6472;52.328;13.070;2023-12-28T04:13:39;7.60;99.90
12815;DHT22;6472;52.328;13.070;2023-12-28T04:16:07;7.60;99.90
12815;DHT22;6472;52.328;13.070;2023-12-28T04:18:36;7.70;99.90
12815;DHT22;6472;52.328;13.070;2023-12-28T04:21:04;7.80;99.90
12815;DHT22;6472;52.328;13.070;2023-12-28T04:23:37;7.70;99.90
12815;DHT22;6472;52.328;13.070;2023-12-28T04:26:06;7.90;99.90
12815;DHT22;6472;52.328;13.070;2023-12-28T04:28:34;7.90;99.90
12815;DHT22;6472;52.328;13.070;2023-12-28T04:31:03;7.90;99.90
12815;DHT22;6472;52.328;13.070;2023-12-28T04:33:32;7.90;99.90
12815;DHT22;6472;52.328;13.070;2023-12-28T04:36:01;7.90;99.90
12815;DHT22;6472;52.328;13.070;2023-12-28T04:38:31;7.80;99.90
12815;DHT22;6472;52.328;13.070;2023-12-28T04:41:00;7.80;99.90
12815;DHT22;6472;52.328;13.070;2023-12-28T04:43:28;7.80;99.90
12815;DHT22;6472;52.328;13.070;2023-12-28T04:45:56;7.70;99.90
12815;DHT22;6472;52.328;13.070;2023-12-28T04:48:24;7.70;99.90
12815;DHT22;6472;52.328;13.070;2023-12-28T04:50:53;7.60;99.90
12815;DHT22;6472;52.328;13.070;2023-12-28T04:53:21;7.70;99.90
12815;DHT22;6472;52.328;13.070;2023-12-28T04:55:48;7.80;99.90
12815;DHT22;6472;52.328;13.070;2023-12-28T04:58:18;7.80;99.90
12815;DHT22;6472;52.328;13.070;2023-12-28T05:00:46;7.80;99.90
12815;DHT22;6472;52.328;13.070;2023-12-28T05:03:14;7.80;99.90
12815;DHT22;6472;52.328;13.070;2023-12-28T05:05:42;7.70;99.90
12815;DHT22;6472;52.328;13.070;2023-12-28T05:08:10;7.80;99.90
12815;DHT22;6472;52.328;13.070;2023-12-28T05:10:38;7.80;99.90
12815;DHT22;6472;52.328;13.070;2023-12-28T05:13:06;7.70;99.90
12815;DHT22;6472;52.328;13.070;2023-12-28T05:15:36;7.80;99.90
12815;DHT22;6472;52.328;13.070;2023-12-28T05:18:04;7.70;99.90
12815;DHT22;6472;52.328;13.070;2023-12-28T05:20:34;7.80;99.90
12815;DHT22;6472;52.328;13.070;2023-12-28T05:23:02;7.90;99.90
12815;DHT22;6472;52.328;13.070;2023-12-28T05:25:30;7.80;99.90
12815;DHT22;6472;52.328;13.070;2023-12-28T05:27:58;7.90;99.90
12815;DHT22;6472;52.328;13.070;2023-12-28T05:30:27;7.80;99.90
12815;DHT22;6472;52.328;13.070;2023-12-28T05:32:56;7.70;99.90
12815;DHT22;6472;52.328;13.070;2023-12-28T05:35:24;7.70;99.90
12815;DHT22;6472;52.328;13.070;2023-12-28T05:37:52;7.60;99.90
12815;DHT22;6472;52.328;13.070;2023-12-28T05:40:20;7.60;99.90
12815;DHT22;6472;52.328;13.070;2023-12-28T05:42:48;7.50;99.90
12815;DHT22;6472;52.328;13.070;2023-12-28T05:45:16;7.50;99.90
12815;DHT22;6472;52.328;13.070;2023-12-28T05:47:44;7.50;99.90
12815;DHT22;6472;52.328;13.070;2023-12-28T05:50:14;7.60;99.90
12815;DHT22;6472;52.328;13.070;2023-12-28T05:52:41;7.60;99.90
12815;DHT22;6472;52.328;13.070;2023-12-28T05:55:09;7.90;99.90
12815;DHT22;6472;52.328;13.070;2023-12-28T05:57:37;7.50;99.90
12815;DHT22;6472;52.328;13.070;2023-12-28T06:00:06;7.50;99.90
12815;DHT22;6472;52.328;13.070;2023-12-28T06:02:36;7.50;99.90
12815;DHT22;6472;52.328;13.070;2023-12-28T06:05:04;7.40;99.90
12815;DHT22;6472;52.328;13.070;2023-12-28T06:07:34;7.50;99.90
12815;DHT22;6472;52.328;13.070;2023-12-28T06:10:03;7.50;99.90
12815;DHT22;6472;52.328;13.070;2023-12-28T06:12:33;7.50;99.90
12815;DHT22;6472;52.328;13.070;2023-12-28T06:15:01;7.40;99.90
12815;DHT22;6472;52.328;13.070;2023-12-28T06:17:29;7.50;99.90
12815;DHT22;6472;52.328;13.070;2023-12-28T06:20:01;7.50;99.90
12815;DHT22;6472;52.328;13.070;2023-12-28T06:22:29;7.60;99.90
12815;DHT22;6472;52.328;13.070;2023-12-28T06:24:58;7.70;99.90
12815;DHT22;6472;52.328;13.070;2023-12-28T06:27:26;7.70;99.90
12815;DHT22;6472;52.328;13.070;2023-12-28T06:29:55;7.60;99.90
12815;DHT22;6472;52.328;13.070;2023-12-28T06:32:23;7.60;99.90
12815;DHT22;6472;52.328;13.070;2023-12-28T06:34:53;7.60;99.90
12815;DHT22;6472;52.328;13.070;2023-12-28T06:37:21;7.70;99.90
12815;DHT22;6472;52.328;13.070;2023-12-28T06:39:49;7.60;99.90
12815;DHT22;6472;52.328;13.070;2023-12-28T06:42:18;7.60;99.90
12815;DHT22;6472;52.328;13.070;2023-12-28T06:44:46;7.60;99.90
12815;DHT22;6472;52.328;13.070;2023-12-28T06:47:14;7.50;99.90
12815;DHT22;6472;52.328;13.070;2023-12-28T06:49:42;7.40;99.90
12815;DHT22;6472;52.328;13.070;2023-12-28T06:52:10;7.50;99.90
12815;DHT22;6472;52.328;13.070;2023-12-28T06:54:38;7.50;99.90
12815;DHT22;6472;52.328;13.070;2023-12-28T06:57:06;7.60;99.90
12815;DHT22;6472;52.328;13.070;2023-12-28T06:59:35;7.60;99.90
12815;DHT22;6472;52.328;13.070;2023-12-28T07:02:03;7.60;99.90
12815;DHT22;6472;52.328;13.070;2023-12-28T07:04:31;7.50;99.90
12815;DHT22;6472;52.328;13.070;2023-12-28T07:06:59;7.60;99.90
12815;DHT22;6472;52.328;13.070;2023-12-28T07:09:27;7.60;99.90
12815;DHT22;6472;52.328;13.070;2023-12-28T07:11:56;7.70;99.90
12815;DHT22;6472;52.328;13.070;2023-12-28T07:14:24;7.70;99.90
12815;DHT22;6472;52.328;13.070;2023-12-28T07:16:53;7.80;99.90
12815;DHT22;6472;52.328;13.070;2023-12-28T07:19:21;7.70;99.90
12815;DHT22;6472;52.328;13.070;2023-12-28T07:21:49;7.70;99.90
12815;DHT22;6472;52.328;13.070;2023-12-28T07:24:17;7.60;99.90
12815;DHT22;6472;52.328;13.070;2023-12-28T07:26:45;7.60;99.90
12815;DHT22;6472;52.328;13.070;2023-12-28T07:29:13;7.60;99.90
12815;DHT22;6472;52.328;13.070;2023-12-28T07:31:41;7.80;99.90
12815;DHT22;6472;52.328;13.070;2023-12-28T07:34:10;7.80;99.90
12815;DHT22;6472;52.328;13.070;2023-12-28T07:36:39;7.70;99.90
12815;DHT22;6472;52.328;13.070;2023-12-28T07:39:09;7.70;99.90
12815;DHT22;6472;52.328;13.070;2023-12-28T07:41:37;7.70;99.90
12815;DHT22;6472;52.328;13.070;2023-12-28T07:44:05;7.60;99.90
12815;DHT22;6472;52.328;13.070;2023-12-28T07:46:33;7.50;99.90
12815;DHT22;6472;52.328;13.070;2023-12-28T07:49:01;7.70;99.90
12815;DHT22;6472;52.328;13.070;2023-12-28T07:51:31;7.60;99.90
12815;DHT22;6472;52.328;13.070;2023-12-28T07:53:59;7.60;99.90
12815;DHT22;6472;52.328;13.070;2023-12-28T07:56:27;7.50;99.90
12815;DHT22;6472;52.328;13.070;2023-12-28T07:58:55;7.60;99.90
12815;DHT22;6472;52.328;13.070;2023-12-28T08:01:23;7.60;99.90
12815;DHT22;6472;52.328;13.070;2023-12-28T08:03:51;7.60;99.90
12815;DHT22;6472;52.328;13.070;2023-12-28T08:06:20;7.60;99.90
12815;DHT22;6472;52.328;13.070;2023-12-28T08:08:49;7.60;99.90
12815;DHT22;6472;52.328;13.070;2023-12-28T08:11:17;7.60;99.90
12815;DHT22;6472;52.328;13.070;2023-12-28T08:13:45;7.80;99.90
12815;DHT22;6472;52.328;13.070;2023-12-28T08:16:13;7.80;99.90
12815;DHT22;6472;52.328;13.070;2023-12-28T08:18:41;7.70;99.90
12815;DHT22;6472;52.328;13.070;2023-12-28T08:21:09;7.80;99.90
12815;DHT22;6472;52.328;13.070;2023-12-28T08:23:37;7.80;99.90
12815;DHT22;6472;52.328;13.070;2023-12-28T08:26:06;7.80;99.90
12815;DHT22;6472;52.328;13.070;2023-12-28T08:28:34;7.70;99.90
12815;DHT22;6472;52.328;13.070;2023-12-28T08:31:03;7.80;99.90
12815;DHT22;6472;52.328;13.070;2023-12-28T08:33:31;7.80;99.90
12815;DHT22;6472;52.328;13.070;2023-12-28T08:35:59;7.90;99.90
12815;DHT22;6472;52.328;13.070;2023-12-28T08:38:27;7.80;99.90
12815;DHT22;6472;52.328;13.070;2023-12-28T08:40:55;7.80;99.90
12815;DHT22;6472;52.328;13.070;2023-12-28T08:43:24;7.80;99.90
12815;DHT22;6472;52.328;13.070;2023-12-28T08:45:53;7.70;99.90
12815;DHT22;6472;52.328;13.070;2023-12-28T08:48:22;7.80;99.90
12815;DHT22;6472;52.328;13.070;2023-12-28T08:50:51;7.90;99.90
12815;DHT22;6472;52.328;13.070;2023-12-28T08:53:18;7.90;99.90
12815;DHT22;6472;52.328;13.070;2023-12-28T08:55:46;8.00;99.90
12815;DHT22;6472;52.328;13.070;2023-12-28T08:58:15;8.00;99.90
12815;DHT22;6472;52.328;13.070;2023-12-28T09:00:44;8.00;99.90
12815;DHT22;6472;52.328;13.070;2023-12-28T09:03:12;8.00;99.90
12815;DHT22;6472;52.328;13.070;2023-12-28T09:05:40;8.00;99.90
12815;DHT22;6472;52.328;13.070;2023-12-28T09:08:08;8.00;99.90
12815;DHT22;6472;52.328;13.070;2023-12-28T09:10:36;8.00;99.90
12815;DHT22;6472;52.328;13.070;2023-12-28T09:13:04;8.10;99.90
12815;DHT22;6472;52.328;13.070;2023-12-28T09:15:32;8.10;99.90
12815;DHT22;6472;52.328;13.070;2023-12-28T09:18:02;8.10;99.90
12815;DHT22;6472;52.328;13.070;2023-12-28T09:20:30;8.10;99.90
12815;DHT22;6472;52.328;13.070;2023-12-28T09:22:58;8.10;99.90
12815;DHT22;6472;52.328;13.070;2023-12-28T09:25:26;8.20;99.90
12815;DHT22;6472;52.328;13.070;2023-12-28T09:27:54;8.10;99.90
12815;DHT22;6472;52.328;13.070;2023-12-28T09:30:23;8.00;99.90
12815;DHT22;6472;52.328;13.070;2023-12-28T09:32:51;8.00;99.90
12815;DHT22;6472;52.328;13.070;2023-12-28T09:35:21;8.10;99.90
12815;DHT22;6472;52.328;13.070;2023-12-28T09:37:49;8.20;99.90
12815;DHT22;6472;52.328;13.070;2023-12-28T09:40:17;8.10;99.90
12815;DHT22;6472;52.328;13.070;2023-12-28T09:42:57;8.10;99.90
12815;DHT22;6472;52.328;13.070;2023-12-28T09:45:29;8.10;99.90
12815;DHT22;6472;52.328;13.070;2023-12-28T09:47:57;8.10;99.90
12815;DHT22;6472;52.328;13.070;2023-12-28T09:50:26;8.10;99.90
12815;DHT22;6472;52.328;13.070;2023-12-28T09:52:54;8.20;99.90
12815;DHT22;6472;52.328;13.070;2023-12-28T09:55:22;8.10;99.90
12815;DHT22;6472;52.328;13.070;2023-12-28T09:57:51;8.30;99.90
12815;DHT22;6472;52.328;13.070;2023-12-28T10:00:19;8.30;99.90
12815;DHT22;6472;52.328;13.070;2023-12-28T10:02:47;8.40;99.90
12815;DHT22;6472;52.328;13.070;2023-12-28T10:05:15;8.50;99.90
12815;DHT22;6472;52.328;13.070;2023-12-28T10:07:45;8.50;99.90
12815;DHT22;6472;52.328;13.070;2023-12-28T10:10:17;8.50;99.90
12815;DHT22;6472;52.328;13.070;2023-12-28T10:12:47;8.60;99.90
12815;DHT22;6472;52.328;13.070;2023-12-28T10:15:15;8.60;99.90
12815;DHT22;6472;52.328;13.070;2023-12-28T10:17:43;8.70;99.90
12815;DHT22;6472;52.328;13.070;2023-12-28T10:20:11;8.80;99.90
12815;DHT22;6472;52.328;13.070;2023-12-28T10:22:39;8.70;99.90
12815;DHT22;6472;52.328;13.070;2023-12-28T10:25:09;8.80;99.90
12815;DHT22;6472;52.328;13.070;2023-12-28T10:27:38;8.90;99.90
12815;DHT22;6472;52.328;13.070;2023-12-28T10:30:08;8.90;99.90
12815;DHT22;6472;52.328;13.070;2023-12-28T10:32:40;8.90;99.90
12815;DHT22;6472;52.328;13.070;2023-12-28T10:35:08;9.00;99.90
12815;DHT22;6472;52.328;13.070;2023-12-28T10:37:39;9.00;99.90
12815;DHT22;6472;52.328;13.070;2023-12-28T10:40:14;8.90;99.90
12815;DHT22;6472;52.328;13.070;2023-12-28T10:42:50;9.00;99.90
12815;DHT22;6472;52.328;13.070;2023-12-28T10:45:19;9.00;99.90
12815;DHT22;6472;52.328;13.070;2023-12-28T10:47:54;8.90;99.90
12815;DHT22;6472;52.328;13.070;2023-12-28T10:50:29;9.00;99.90
12815;DHT22;6472;52.328;13.070;2023-12-28T10:53:04;9.00;99.90
12815;DHT22;6472;52.328;13.070;2023-12-28T10:55:42;9.00;99.90
12815;DHT22;6472;52.328;13.070;2023-12-28T10:58:17;9.00;99.90
12815;DHT22;6472;52.328;13.070;2023-12-28T11:00:56;9.10;99.90
12815;DHT22;6472;52.328;13.070;2023-12-28T11:03:30;9.20;99.90
12815;DHT22;6472;52.328;13.070;2023-12-28T11:05:59;9.20;99.90
12815;DHT22;6472;52.328;13.070;2023-12-28T11:08:29;9.30;99.90
12815;DHT22;6472;52.328;13.070;2023-12-28T11:10:59;9.30;99.90
12815;DHT22;6472;52.328;13.070;2023-12-28T11:13:30;9.50;99.90
12815;DHT22;6472;52.328;13.070;2023-12-28T11:16:00;9.60;99.90
12815;DHT22;6472;52.328;13.070;2023-12-28T11:18:29;9.80;99.90
12815;DHT22;6472;52.328;13.070;2023-12-28T11:20:57;9.80;99.90
12815;DHT22;6472;52.328;13.070;2023-12-28T11:23:25;9.90;99.90
12815;DHT22;6472;52.328;13.070;2023-12-28T11:25:54;9.90;99.90
12815;DHT22;6472;52.328;13.070;2023-12-28T11:28:24;10.00;99.90
12815;DHT22;6472;52.328;13.070;2023-12-28T11:30:52;10.00;99.90
12815;DHT22;6472;52.328;13.070;2023-12-28T11:33:20;10.00;99.90
12815;DHT22;6472;52.328;13.070;2023-12-28T11:35:48;10.00;99.90
12815;DHT22;6472;52.328;13.070;2023-12-28T11:38:17;10.00;99.90
12815;DHT22;6472;52.328;13.070;2023-12-28T11:40:46;9.90;99.90
12815;DHT22;6472;52.328;13.070;2023-12-28T11:43:21;9.90;99.90
12815;DHT22;6472;52.328;13.070;2023-12-28T11:45:54;9.80;99.90
12815;DHT22;6472;52.328;13.070;2023-12-28T11:48:23;9.80;99.90
12815;DHT22;6472;52.328;13.070;2023-12-28T11:50:55;9.60;99.90
12815;DHT22;6472;52.328;13.070;2023-12-28T11:53:25;9.50;99.90
12815;DHT22;6472;52.328;13.070;2023-12-28T11:55:59;9.50;99.90
12815;DHT22;6472;52.328;13.070;2023-12-28T11:58:29;9.40;99.90
12815;DHT22;6472;52.328;13.070;2023-12-28T12:00:58;9.30;99.90
12815;DHT22;6472;52.328;13.070;2023-12-28T12:03:26;9.30;99.90
12815;DHT22;6472;52.328;13.070;2023-12-28T12:05:55;9.40;99.90
12815;DHT22;6472;52.328;13.070;2023-12-28T12:08:24;9.40;99.90
12815;DHT22;6472;52.328;13.070;2023-12-28T12:11:00;9.50;99.90
12815;DHT22;6472;52.328;13.070;2023-12-28T12:13:29;9.50;99.90
12815;DHT22;6472;52.328;13.070;2023-12-28T12:15:58;9.50;99.90
12815;DHT22;6472;52.328;13.070;2023-12-28T12:18:29;9.50;99.90
12815;DHT22;6472;52.328;13.070;2023-12-28T12:20:57;9.50;99.90
12815;DHT22;6472;52.328;13.070;2023-12-28T12:23:25;9.50;99.90
12815;DHT22;6472;52.328;13.070;2023-12-28T12:25:53;9.50;99.90
12815;DHT22;6472;52.328;13.070;2023-12-28T12:28:22;9.60;99.90
12815;DHT22;6472;52.328;13.070;2023-12-28T12:30:51;9.50;99.90
12815;DHT22;6472;52.328;13.070;2023-12-28T12:33:22;9.50;99.90
12815;DHT22;6472;52.328;13.070;2023-12-28T12:35:51;9.50;99.90
12815;DHT22;6472;52.328;13.070;2023-12-28T12:38:19;9.50;99.90
12815;DHT22;6472;52.328;13.070;2023-12-28T12:40:49;9.50;99.90
12815;DHT22;6472;52.328;13.070;2023-12-28T12:43:17;9.50;99.90
12815;DHT22;6472;52.328;13.070;2023-12-28T12:45:46;9.50;99.90
12815;DHT22;6472;52.328;13.070;2023-12-28T12:48:15;9.50;99.90
12815;DHT22;6472;52.328;13.070;2023-12-28T12:50:45;9.50;99.90
12815;DHT22;6472;52.328;13.070;2023-12-28T12:53:13;9.40;99.90
12815;DHT22;6472;52.328;13.070;2023-12-28T12:55:41;9.50;99.90
12815;DHT22;6472;52.328;13.070;2023-12-28T12:58:09;9.50;99.90
12815;DHT22;6472;52.328;13.070;2023-12-28T13:00:39;9.50;99.90
12815;DHT22;6472;52.328;13.070;2023-12-28T13:03:08;9.60;99.90
12815;DHT22;6472;52.328;13.070;2023-12-28T13:05:37;9.50;99.90
12815;DHT22;6472;52.328;13.070;2023-12-28T13:08:06;9.60;99.90
12815;DHT22;6472;52.328;13.070;2023-12-28T13:10:34;9.60;99.90
12815;DHT22;6472;52.328;13.070;2023-12-28T13:13:06;9.50;99.90
12815;DHT22;6472;52.328;13.070;2023-12-28T13:15:34;9.50;99.90
12815;DHT22;6472;52.328;13.070;2023-12-28T13:18:03;9.50;99.90
12815;DHT22;6472;52.328;13.070;2023-12-28T13:20:31;9.60;99.90
12815;DHT22;6472;52.328;13.070;2023-12-28T13:23:00;9.60;99.90
12815;DHT22;6472;52.328;13.070;2023-12-28T13:25:34;9.60;99.90
12815;DHT22;6472;52.328;13.070;2023-12-28T13:28:02;9.60;99.90
12815;DHT22;6472;52.328;13.070;2023-12-28T13:30:30;9.70;99.90
12815;DHT22;6472;52.328;13.070;2023-12-28T13:32:58;9.70;99.90
12815;DHT22;6472;52.328;13.070;2023-12-28T13:35:27;9.80;99.90
12815;DHT22;6472;52.328;13.070;2023-12-28T13:37:55;9.80;99.90
12815;DHT22;6472;52.328;13.070;2023-12-28T13:40:23;9.80;99.90
12815;DHT22;6472;52.328;13.070;2023-12-28T13:42:52;9.80;99.90
12815;DHT22;6472;52.328;13.070;2023-12-28T13:45:20;9.80;99.90
12815;DHT22;6472;52.328;13.070;2023-12-28T13:47:48;9.80;99.90
12815;DHT22;6472;52.328;13.070;2023-12-28T13:50:16;9.80;99.90
12815;DHT22;6472;52.328;13.070;2023-12-28T13:52:44;9.80;99.90
12815;DHT22;6472;52.328;13.070;2023-12-28T13:55:12;9.80;99.90
12815;DHT22;6472;52.328;13.070;2023-12-28T13:57:40;9.80;99.90
12815;DHT22;6472;52.328;13.070;2023-12-28T14:00:11;9.80;99.90
12815;DHT22;6472;52.328;13.070;2023-12-28T14:02:40;9.90;99.90
12815;DHT22;6472;52.328;13.070;2023-12-28T14:05:08;9.80;99.90
12815;DHT22;6472;52.328;13.070;2023-12-28T14:07:36;9.80;99.90
12815;DHT22;6472;52.328;13.070;2023-12-28T14:10:05;9.80;99.90
12815;DHT22;6472;52.328;13.070;2023-12-28T14:12:33;9.70;99.90
12815;DHT22;6472;52.328;13.070;2023-12-28T14:15:01;9.70;99.90
12815;DHT22;6472;52.328;13.070;2023-12-28T14:17:31;9.70;99.90
12815;DHT22;6472;52.328;13.070;2023-12-28T14:19:58;9.70;99.90
12815;DHT22;6472;52.328;13.070;2023-12-28T14:22:27;9.70;99.90
12815;DHT22;6472;52.328;13.070;2023-12-28T14:24:55;9.60;99.90
12815;DHT22;6472;52.328;13.070;2023-12-28T14:27:24;9.60;99.90
12815;DHT22;6472;52.328;13.070;2023-12-28T14:29:52;9.60;99.90
12815;DHT22;6472;52.328;13.070;2023-12-28T14:32:24;9.50;99.90
12815;DHT22;6472;52.328;13.070;2023-12-28T14:34:53;9.50;99.90
12815;DHT22;6472;52.328;13.070;2023-12-28T14:37:21;9.50;99.90
12815;DHT22;6472;52.328;13.070;2023-12-28T14:39:49;9.40;99.90
12815;DHT22;6472;52.328;13.070;2023-12-28T14:42:17;9.30;99.90
12815;DHT22;6472;52.328;13.070;2023-12-28T14:44:45;9.30;99.90
12815;DHT22;6472;52.328;13.070;2023-12-28T14:47:14;9.30;99.90
12815;DHT22;6472;52.328;13.070;2023-12-28T14:49:42;9.20;99.90
12815;DHT22;6472;52.328;13.070;2023-12-28T14:52:12;9.20;99.90
12815;DHT22;6472;52.328;13.070;2023-12-28T14:54:40;9.30;99.90
12815;DHT22;6472;52.328;13.070;2023-12-28T14:57:10;9.30;99.90
12815;DHT22;6472;52.328;13.070;2023-12-28T14:59:38;9.20;99.90
12815;DHT22;6472;52.328;13.070;2023-12-28T15:02:06;9.20;99.90
12815;DHT22;6472;52.328;13.070;2023-12-28T15:04:34;9.10;99.90
12815;DHT22;6472;52.328;13.070;2023-12-28T15:07:04;9.00;99.90
12815;DHT22;6472;52.328;13.070;2023-12-28T15:09:34;8.80;99.90
12815;DHT22;6472;52.328;13.070;2023-12-28T15:14:40;8.60;99.90
12815;DHT22;6472;52.328;13.070;2023-12-28T15:17:09;8.50;99.90
12815;DHT22;6472;52.328;13.070;2023-12-28T15:19:37;8.40;99.90
12815;DHT22;6472;52.328;13.070;2023-12-28T15:22:06;8.30;99.90
12815;DHT22;6472;52.328;13.070;2023-12-28T15:24:37;8.30;99.90
12815;DHT22;6472;52.328;13.070;2023-12-28T15:27:06;8.30;99.90
12815;DHT22;6472;52.328;13.070;2023-12-28T15:29:34;8.20;99.90
12815;DHT22;6472;52.328;13.070;2023-12-28T15:32:03;8.10;99.90
12815;DHT22;6472;52.328;13.070;2023-12-28T15:34:31;8.10;99.90
12815;DHT22;6472;52.328;13.070;2023-12-28T15:36:59;8.00;99.90
12815;DHT22;6472;52.328;13.070;2023-12-28T15:39:27;7.90;99.90
12815;DHT22;6472;52.328;13.070;2023-12-28T15:41:56;7.90;99.90
12815;DHT22;6472;52.328;13.070;2023-12-28T15:44:24;7.80;99.90
12815;DHT22;6472;52.328;13.070;2023-12-28T15:46:52;7.80;99.90
12815;DHT22;6472;52.328;13.070;2023-12-28T15:49:20;7.80;99.90
12815;DHT22;6472;52.328;13.070;2023-12-28T15:51:48;7.80;99.90
12815;DHT22;6472;52.328;13.070;2023-12-28T15:54:16;7.80;99.90
12815;DHT22;6472;52.328;13.070;2023-12-28T15:56:44;7.90;99.90